createdAt,value
2019-01-14T00:01:16.715Z,38.60
2019-01-14T00:04:32.353Z,38.90
2019-01-14T00:07:46.066Z,38.70
2019-01-14T00:11:08.745Z,38.90
2019-01-14T00:14:24.614Z,38.80
2019-01-14T00:17:39.925Z,38.60
2019-01-14T00:20:55.790Z,38.60
2019-01-14T00:24:11.562Z,38.60
2019-01-14T00:27:27.346Z,38.90
2019-01-14T00:30:43.155Z,38.80
2019-01-14T00:33:59.106Z,38.80
2019-01-14T00:37:14.339Z,38.90
2019-01-14T00:40:29.986Z,38.80
2019-01-14T00:43:45.734Z,39.60
2019-01-14T00:47:01.793Z,39.00
2019-01-14T00:50:17.246Z,39.00
2019-01-14T00:53:32.417Z,38.70
2019-01-14T00:56:48.430Z,38.80
2019-01-14T01:00:01.969Z,38.80
2019-01-14T01:03:24.653Z,39.00
2019-01-14T01:06:40.462Z,38.90
2019-01-14T01:09:43.722Z,38.60
2019-01-14T01:13:06.493Z,39.00
2019-01-14T01:16:29.170Z,38.90
2019-01-14T01:19:45.031Z,38.70
2019-01-14T01:23:01.157Z,39.00
2019-01-14T01:26:17.061Z,38.80
2019-01-14T01:29:34.548Z,39.10
2019-01-14T01:32:49.895Z,38.90
2019-01-14T01:36:05.125Z,38.80
2019-01-14T01:39:20.777Z,39.00
2019-01-14T01:42:36.666Z,39.10
2019-01-14T01:45:52.722Z,38.80
2019-01-14T01:49:08.290Z,39.10
2019-01-14T01:52:23.481Z,38.80
2019-01-14T01:55:39.237Z,39.10
2019-01-14T01:58:55.338Z,39.10
2019-01-14T02:02:10.979Z,39.00
2019-01-14T02:05:27.013Z,38.80
2019-01-14T02:08:43.130Z,39.00
2019-01-14T02:11:58.902Z,39.10
2019-01-14T02:15:14.586Z,38.90
2019-01-14T02:18:30.471Z,38.80
2019-01-14T02:21:46.559Z,39.10
2019-01-14T02:25:02.575Z,38.80
2019-01-14T02:28:18.110Z,39.00
2019-01-14T02:31:34.050Z,39.00
2019-01-14T02:34:49.471Z,39.00
2019-01-14T02:38:05.335Z,38.80
2019-01-14T02:41:21.350Z,38.90
2019-01-14T02:44:37.223Z,38.90
2019-01-14T02:47:53.134Z,39.00
2019-01-14T02:51:08.846Z,38.80
2019-01-14T02:54:24.503Z,38.70
2019-01-14T02:57:37.953Z,38.70
2019-01-14T03:00:53.933Z,39.00
2019-01-14T03:04:09.382Z,38.90
2019-01-14T03:07:25.571Z,38.90
2019-01-14T03:10:41.634Z,38.70
2019-01-14T03:13:56.983Z,38.90
2019-01-14T03:17:13.011Z,39.00
2019-01-14T03:20:29.003Z,39.00
2019-01-14T03:23:44.877Z,38.70
2019-01-14T03:27:01.014Z,38.70
2019-01-14T03:30:16.732Z,38.90
2019-01-14T03:33:32.645Z,38.70
2019-01-14T03:36:48.435Z,38.90
2019-01-14T03:40:02.077Z,38.80
2019-01-14T03:43:24.778Z,38.80
2019-01-14T03:46:41.258Z,38.50
2019-01-14T03:49:57.154Z,38.80
2019-01-14T03:53:12.589Z,38.80
2019-01-14T03:56:26.126Z,38.90
2019-01-14T03:59:48.887Z,38.80
2019-01-14T04:03:04.236Z,38.60
2019-01-14T04:06:19.457Z,38.50
2019-01-14T04:09:34.673Z,38.80
2019-01-14T04:12:50.663Z,38.50
2019-01-14T04:16:06.693Z,38.70
2019-01-14T04:19:09.965Z,38.50
2019-01-14T04:22:32.642Z,38.90
2019-01-14T04:25:48.254Z,38.70
2019-01-14T04:29:04.295Z,38.80
2019-01-14T04:32:19.787Z,38.50
2019-01-14T04:35:35.499Z,38.60
2019-01-14T04:38:50.826Z,38.50
2019-01-14T04:42:06.677Z,38.60
2019-01-14T04:45:20.214Z,38.50
2019-01-14T04:48:35.867Z,38.60
2019-01-14T04:51:51.711Z,38.70
2019-01-14T04:55:08.265Z,38.40
2019-01-14T04:58:24.142Z,38.40
2019-01-14T05:01:40.286Z,38.70
2019-01-14T05:04:56.261Z,38.50
2019-01-14T05:08:09.838Z,38.30
2019-01-14T05:11:25.477Z,39.10
2019-01-14T05:14:40.772Z,38.20
2019-01-14T05:17:56.051Z,38.50
2019-01-14T05:21:12.024Z,38.30
2019-01-14T05:24:27.338Z,38.60
2019-01-14T05:27:30.590Z,38.30
2019-01-14T05:30:53.270Z,38.60
2019-01-14T05:34:15.957Z,38.60
2019-01-14T05:37:38.636Z,38.50
2019-01-14T05:40:53.852Z,38.30
2019-01-14T05:44:09.902Z,38.60
2019-01-14T05:47:25.935Z,38.00
2019-01-14T05:50:41.202Z,38.10
2019-01-14T05:53:56.958Z,38.30
2019-01-14T05:57:12.731Z,38.10
2019-01-14T06:00:30.202Z,38.40
2019-01-14T06:03:45.562Z,38.20
2019-01-14T06:07:00.794Z,38.40
2019-01-14T06:10:14.457Z,38.50
2019-01-14T06:13:37.179Z,38.20
2019-01-14T06:16:53.286Z,38.40
2019-01-14T06:20:09.222Z,38.60
2019-01-14T06:23:24.902Z,38.30
2019-01-14T06:26:40.539Z,38.60
2019-01-14T06:29:56.303Z,38.30
2019-01-14T06:33:12.147Z,38.20
2019-01-14T06:36:27.859Z,38.50
2019-01-14T06:39:43.918Z,38.30
2019-01-14T06:42:59.527Z,38.40
2019-01-14T06:46:15.242Z,38.60
2019-01-14T06:49:30.809Z,38.60
2019-01-14T06:56:17.822Z,38.00
2019-01-14T06:59:41.101Z,38.30
2019-01-14T07:02:57.853Z,38.60
2019-01-14T07:06:13.979Z,38.60
2019-01-14T07:09:30.707Z,38.30
2019-01-14T07:12:46.042Z,38.60
2019-01-14T07:16:01.279Z,38.30
2019-01-14T07:19:17.187Z,38.20
2019-01-14T07:22:32.491Z,38.30
2019-01-14T07:25:48.430Z,38.50
2019-01-14T07:29:04.329Z,38.40
2019-01-14T07:32:18.006Z,38.20
2019-01-14T07:35:40.717Z,38.50
2019-01-14T07:38:56.171Z,38.10
2019-01-14T07:42:12.218Z,38.20
2019-01-14T07:45:28.173Z,38.40
2019-01-14T07:48:44.119Z,38.10
2019-01-14T07:51:59.403Z,38.40
2019-01-14T07:55:14.635Z,38.30
2019-01-14T07:58:28.286Z,38.10
2019-01-14T08:01:44.006Z,38.20
2019-01-14T08:04:59.962Z,38.40
2019-01-14T08:08:15.238Z,37.90
2019-01-14T08:11:30.879Z,37.90
2019-01-14T08:14:46.903Z,38.00
2019-01-14T08:18:02.774Z,37.80
2019-01-14T08:21:18.605Z,38.00
2019-01-14T08:24:34.446Z,38.20
2019-01-14T08:27:50.243Z,38.00
2019-01-14T08:31:06.143Z,37.80
2019-01-14T08:34:21.395Z,37.90
2019-01-14T08:37:36.773Z,38.10
2019-01-14T08:40:52.022Z,37.60
2019-01-14T08:44:08.360Z,37.40
2019-01-14T08:47:23.903Z,37.60
2019-01-14T08:50:39.411Z,37.40
2019-01-14T08:53:55.406Z,37.00
2019-01-14T08:57:11.225Z,37.10
2019-01-14T09:00:27.142Z,37.40
2019-01-14T09:03:43.231Z,37.40
2019-01-14T09:06:58.549Z,37.20
2019-01-14T09:10:14.578Z,37.50
2019-01-14T09:13:28.209Z,37.40
2019-01-14T09:16:50.910Z,37.30
2019-01-14T09:20:06.261Z,36.80
2019-01-14T09:23:22.086Z,36.80
2019-01-14T09:26:37.922Z,37.20
2019-01-14T09:29:53.235Z,37.00
2019-01-14T09:33:08.555Z,37.20
2019-01-14T09:36:24.559Z,37.20
2019-01-14T09:39:40.562Z,37.10
2019-01-14T09:42:56.706Z,36.90
2019-01-14T09:46:12.812Z,36.00
2019-01-14T09:49:28.658Z,36.90
2019-01-14T09:52:47.651Z,36.80
2019-01-14T09:56:03.596Z,36.90
2019-01-14T09:59:19.678Z,36.70
2019-01-14T10:02:34.996Z,37.10
2019-01-14T10:05:50.754Z,36.70
2019-01-14T10:12:40.319Z,36.30
2019-01-14T10:15:56.289Z,37.00
2019-01-14T10:19:12.190Z,37.10
2019-01-14T10:22:28.235Z,37.00
2019-01-14T10:25:44.835Z,36.70
2019-01-14T10:29:00.458Z,36.70
2019-01-14T10:32:16.023Z,36.80
2019-01-14T10:35:31.909Z,36.90
2019-01-14T10:38:50.451Z,36.80
2019-01-14T10:42:05.278Z,37.00
2019-01-14T10:45:20.519Z,36.60
2019-01-14T10:48:36.444Z,36.50
2019-01-14T10:51:52.317Z,36.80
2019-01-14T10:55:12.309Z,36.80
2019-01-14T10:58:25.607Z,36.90
2019-01-14T11:01:40.849Z,37.50
2019-01-14T11:04:57.091Z,36.50
2019-01-14T11:08:12.990Z,36.50
2019-01-14T11:14:45.701Z,36.60
2019-01-14T11:17:48.960Z,36.50
2019-01-14T11:21:14.437Z,36.70
2019-01-14T11:24:31.066Z,36.70
2019-01-14T11:27:46.360Z,36.40
2019-01-14T11:31:01.853Z,36.50
2019-01-14T11:34:17.084Z,36.40
2019-01-14T11:37:33.105Z,36.40
2019-01-14T11:40:49.075Z,36.40
2019-01-14T11:44:05.135Z,36.70
2019-01-14T11:47:21.106Z,36.70
2019-01-14T11:50:36.302Z,36.50
2019-01-14T11:53:52.312Z,36.70
2019-01-14T11:57:07.918Z,36.60
2019-01-14T12:00:23.565Z,36.70
2019-01-14T12:03:39.682Z,36.50
2019-01-14T12:06:55.698Z,36.20
2019-01-14T12:10:11.723Z,36.40
2019-01-14T12:13:27.070Z,36.20
2019-01-14T12:16:43.009Z,36.30
2019-01-14T12:19:56.638Z,36.40
2019-01-14T12:23:19.323Z,36.60
2019-01-14T12:26:34.552Z,36.40
2019-01-14T12:29:50.477Z,36.50
2019-01-14T12:33:05.942Z,36.20
2019-01-14T12:36:21.990Z,36.30
2019-01-14T12:39:38.283Z,36.30
2019-01-14T12:42:54.337Z,36.50
2019-01-14T12:46:07.990Z,36.60
2019-01-14T12:49:23.534Z,36.50
2019-01-14T12:52:38.758Z,36.60
2019-01-14T12:59:11.662Z,36.60
2019-01-14T13:02:27.657Z,36.60
2019-01-14T13:05:42.942Z,36.50
2019-01-14T13:08:58.825Z,36.60
2019-01-14T13:12:16.883Z,36.90
2019-01-14T13:15:33.005Z,36.70
2019-01-14T13:18:49.093Z,36.80
2019-01-14T13:22:05.108Z,36.60
2019-01-14T13:25:21.049Z,36.50
2019-01-14T13:28:37.035Z,36.70
2019-01-14T13:31:53.107Z,36.60
2019-01-14T13:35:08.303Z,36.60
2019-01-14T13:38:24.131Z,36.60
2019-01-14T13:41:39.362Z,36.30
2019-01-14T13:44:55.334Z,36.20
2019-01-14T13:48:10.905Z,36.30
2019-01-14T13:51:26.994Z,36.20
2019-01-14T13:54:42.538Z,36.30
2019-01-14T13:57:59.914Z,36.30
2019-01-14T14:01:15.605Z,36.50
2019-01-14T14:04:31.279Z,36.60
2019-01-14T14:07:46.586Z,36.50
2019-01-14T14:11:02.662Z,36.40
2019-01-14T14:14:17.944Z,36.60
2019-01-14T14:17:33.956Z,36.40
2019-01-14T14:20:50.096Z,36.80
2019-01-14T14:24:05.381Z,36.50
2019-01-14T14:27:21.548Z,36.70
2019-01-14T14:30:37.735Z,36.50
2019-01-14T14:33:53.718Z,36.80
2019-01-14T14:37:09.004Z,36.70
2019-01-14T14:40:25.022Z,36.80
2019-01-14T14:43:40.375Z,36.60
2019-01-14T14:46:56.370Z,36.80
2019-01-14T14:50:11.655Z,36.60
2019-01-14T14:53:27.614Z,36.70
2019-01-14T14:56:43.626Z,36.90
2019-01-14T14:59:57.296Z,36.90
2019-01-14T15:03:20.038Z,36.90
2019-01-14T15:06:36.012Z,36.60
2019-01-14T15:09:55.849Z,36.60
2019-01-14T15:13:09.234Z,36.50
2019-01-14T15:16:25.294Z,36.50
2019-01-14T15:19:38.949Z,36.70
2019-01-14T15:23:01.634Z,36.90
2019-01-14T15:26:16.982Z,37.00
2019-01-14T15:29:32.473Z,37.00
2019-01-14T15:32:47.700Z,37.00
2019-01-14T15:36:03.869Z,36.90
2019-01-14T15:39:19.743Z,36.90
2019-01-14T15:42:35.050Z,36.80
2019-01-14T15:45:50.549Z,37.00
2019-01-14T15:49:05.892Z,36.80
2019-01-14T15:52:21.869Z,36.60
2019-01-14T15:55:37.439Z,36.60
2019-01-14T15:58:53.459Z,36.80
2019-01-14T16:02:09.475Z,36.90
2019-01-14T16:05:25.640Z,36.90
2019-01-14T16:08:39.249Z,36.80
2019-01-14T16:11:54.791Z,36.80
2019-01-14T16:15:10.118Z,36.70
2019-01-14T16:18:26.261Z,36.60
2019-01-14T16:21:41.626Z,36.80
2019-01-14T16:24:56.930Z,36.70
2019-01-14T16:28:13.682Z,36.70
2019-01-14T16:31:29.453Z,36.50
2019-01-14T16:34:47.015Z,36.80
2019-01-14T16:38:02.272Z,36.80
2019-01-14T16:41:18.436Z,36.60
2019-01-14T16:44:33.806Z,36.90
2019-01-14T16:47:48.985Z,36.90
2019-01-14T16:51:04.245Z,36.70
2019-01-14T16:54:20.272Z,36.80
2019-01-14T16:57:35.605Z,36.80
2019-01-14T17:00:50.778Z,36.90
2019-01-14T17:04:06.833Z,36.90
2019-01-14T17:07:22.186Z,37.10
2019-01-14T17:10:37.449Z,36.80
2019-01-14T17:13:52.886Z,37.10
2019-01-14T17:17:06.462Z,36.80
2019-01-14T17:23:51.091Z,37.10
2019-01-14T17:27:07.006Z,36.90
2019-01-14T17:30:24.116Z,37.00
2019-01-14T17:33:39.399Z,37.10
2019-01-14T17:36:55.501Z,36.70
2019-01-14T17:40:10.716Z,36.80
2019-01-14T17:43:33.402Z,37.10
2019-01-14T17:46:49.340Z,36.80
2019-01-14T17:50:05.091Z,37.00
2019-01-14T17:53:20.971Z,36.90
2019-01-14T17:56:36.211Z,36.90
2019-01-14T17:59:52.187Z,37.00
2019-01-14T18:03:07.563Z,36.90
2019-01-14T18:06:23.418Z,37.20
2019-01-14T18:09:39.327Z,36.90
2019-01-14T18:12:55.483Z,37.00
2019-01-14T18:16:11.509Z,37.20
2019-01-14T18:19:26.845Z,37.20
2019-01-14T18:22:42.853Z,37.00
2019-01-14T18:25:56.453Z,37.10
2019-01-14T18:29:19.137Z,37.20
2019-01-14T18:32:32.763Z,37.30
2019-01-14T18:35:55.459Z,37.20
2019-01-14T18:39:11.476Z,37.30
2019-01-14T18:42:27.101Z,37.30
2019-01-14T18:45:43.086Z,37.00
2019-01-14T18:48:59.136Z,37.30
2019-01-14T18:52:15.219Z,37.30
2019-01-14T18:55:31.098Z,37.00
2019-01-14T18:58:47.206Z,37.00
2019-01-14T19:02:03.110Z,37.00
2019-01-14T19:05:20.273Z,37.00
2019-01-14T19:08:36.480Z,37.00
2019-01-14T19:11:52.435Z,37.40
2019-01-14T19:15:08.625Z,37.40
2019-01-14T19:18:11.883Z,37.40
2019-01-14T19:21:34.562Z,37.40
2019-01-14T19:24:57.249Z,37.30
2019-01-14T19:28:13.195Z,37.10
2019-01-14T19:31:29.362Z,37.20
2019-01-14T19:34:44.597Z,37.20
2019-01-14T19:37:59.805Z,37.20
2019-01-14T19:41:13.382Z,37.40
2019-01-14T19:44:36.077Z,37.40
2019-01-14T19:47:58.769Z,37.10
2019-01-14T19:51:15.627Z,37.10
2019-01-14T19:54:31.065Z,37.20
2019-01-14T19:57:47.156Z,37.40
2019-01-14T20:01:02.895Z,37.50
2019-01-14T20:04:19.463Z,37.40
2019-01-14T20:07:35.562Z,37.30
2019-01-14T20:10:51.418Z,37.40
2019-01-14T20:14:07.527Z,37.60
2019-01-14T20:17:23.320Z,37.40
2019-01-14T20:20:39.402Z,37.60
2019-01-14T20:23:54.656Z,37.50
2019-01-14T20:27:10.621Z,37.40
2019-01-14T20:30:26.554Z,37.50
2019-01-14T20:33:42.666Z,37.50
2019-01-14T20:36:58.465Z,37.80
2019-01-14T20:40:14.593Z,37.60
2019-01-14T20:43:30.484Z,37.70
2019-01-14T20:46:45.783Z,37.50
2019-01-14T20:53:20.213Z,37.40
2019-01-14T20:56:35.766Z,37.40
2019-01-14T20:59:49.227Z,37.40
2019-01-14T21:03:04.850Z,37.70
2019-01-14T21:06:20.677Z,37.40
2019-01-14T21:09:35.870Z,37.80
2019-01-14T21:12:51.865Z,37.50
2019-01-14T21:16:07.954Z,37.50
2019-01-14T21:19:23.223Z,37.40
2019-01-14T21:22:38.567Z,37.60
2019-01-14T21:25:54.357Z,37.70
2019-01-14T21:29:12.134Z,37.70
2019-01-14T21:32:27.385Z,37.60
2019-01-14T21:35:42.622Z,37.50
2019-01-14T21:38:58.675Z,37.60
2019-01-14T21:42:12.314Z,37.30
2019-01-14T21:45:35.002Z,37.50
2019-01-14T21:48:51.057Z,37.60
2019-01-14T21:52:06.920Z,37.60
2019-01-14T21:55:22.206Z,37.50
2019-01-14T21:58:38.194Z,37.30
2019-01-14T22:01:53.582Z,37.30
2019-01-14T22:05:09.317Z,37.50
2019-01-14T22:08:25.382Z,37.60
2019-01-14T22:11:41.321Z,37.60
2019-01-14T22:14:56.962Z,37.40
2019-01-14T22:18:12.878Z,37.60
2019-01-14T22:21:28.713Z,37.40
2019-01-14T22:24:44.267Z,37.60
2019-01-14T22:28:00.227Z,37.70
2019-01-14T22:31:15.476Z,37.40
2019-01-14T22:34:31.600Z,37.60
2019-01-14T22:37:45.218Z,37.40
2019-01-14T22:41:07.894Z,37.60
2019-01-14T22:44:23.794Z,37.70
2019-01-14T22:47:39.842Z,37.60
2019-01-14T22:50:53.443Z,37.40
2019-01-14T22:54:08.914Z,37.50
2019-01-14T22:57:25.062Z,37.70
2019-01-14T23:01:00.093Z,37.40
2019-01-14T23:04:15.517Z,37.40
2019-01-14T23:07:31.543Z,37.70
2019-01-14T23:10:47.245Z,37.80
2019-01-14T23:14:03.063Z,37.50
2019-01-14T23:17:16.559Z,37.80
2019-01-14T23:20:32.578Z,37.80
2019-01-14T23:23:48.666Z,37.80
2019-01-14T23:27:04.627Z,37.80
2019-01-14T23:30:20.760Z,37.50
2019-01-14T23:33:36.785Z,37.50
2019-01-14T23:36:52.850Z,37.80
2019-01-14T23:40:08.901Z,37.80
2019-01-14T23:43:24.935Z,37.60
2019-01-14T23:46:40.834Z,37.80
2019-01-14T23:49:56.676Z,37.20
2019-01-14T23:53:11.953Z,37.50
2019-01-14T23:56:28.087Z,37.60
2019-01-14T23:59:43.313Z,37.50
